Terminal Aerodrome Forecast
Issued by NWS

Home | Current Version | Previous Version | Graphics & Text | Print | Product List | Glossary On
Versions: 1 2 3 4 5 6 7 8 9 10 11 12 13 14 15 16 17 18 19 20 21 22 23
448
FTUS43 KLOT 252049 AAA
TAFDPA
TAF AMD
KDPA 252049Z 2521/2618 18012G18KT P6SM VCSH BKN050
      TEMPO 2521/2522 3SM -TSRA BKN035CB
     FM252300 22010KT P6SM VCSH SCT015 BKN040
      TEMPO 2602/2605 4SM -SHRA BKN015
     FM260500 28012G18KT P6SM BKN080 BKN150
     FM261400 27017G26KT P6SM SCT050=

USA.gov is the U.S. government's official web portal to all federal, state and local government web resources and services.